Time;durP1;ratioP1;P1;durP2;ratioP2;P2;SDS_P1;SDS_P2;PMS_P1;PMS_P2;Temp;Humidity;BMP_temperature;BMP_pressure;BME280_temperature;BME280_humidity;BME280_pressure;Samples;Min_cycle;Max_cycle;Signal;HPM_P1;HPM_P2
2021/06/01 00:01:24;;;;;;;3.78;1.25;;;384.40;1868.80;;;;;;5075881;28;20023;-58
2021/06/01 00:03:50;;;;;;;2.30;1.48;;;384.40;1868.80;;;;;;5076451;28;20025;-58
2021/06/01 00:06:16;;;;;;;2.95;1.27;;;384.40;1868.80;;;;;;5076002;28;20546;-54
2021/06/01 00:08:42;;;;;;;2.28;1.15;;;384.40;1868.80;;;;;;5076119;28;20029;-54
2021/06/01 00:11:09;;;;;;;2.13;1.48;;;384.40;1868.80;;;;;;5075695;28;20476;-57
2021/06/01 00:13:36;;;;;;;3.05;1.38;;;384.40;1894.40;;;;;;5075766;28;20025;-58
2021/06/01 00:16:03;;;;;;;3.47;1.67;;;384.30;1894.40;;;;;;5075470;28;20028;-55
2021/06/01 00:18:29;;;;;;;3.17;1.50;;;384.20;1894.40;;;;;;5075918;28;20074;-54
2021/06/01 00:20:55;;;;;;;4.65;2.20;;;384.10;1920.00;;;;;;5076068;28;20029;-54
2021/06/01 00:23:21;;;;;;;3.28;1.52;;;384.10;1945.60;;;;;;5076171;28;20032;-54
2021/06/01 00:25:48;;;;;;;4.55;2.00;;;384.10;1945.60;;;;;;5075817;28;20479;-54
2021/06/01 00:28:14;;;;;;;5.18;2.35;;;384.20;1945.60;;;;;;5076096;28;20028;-58
2021/06/01 00:30:41;;;;;;;3.72;1.92;;;384.10;1971.20;;;;;;5074973;28;20386;-58
2021/06/01 00:33:10;;;;;;;3.25;2.10;;;384.20;1971.20;;;;;;5076095;28;20036;-54
2021/06/01 00:35:37;;;;;;;3.13;1.92;;;384.10;1971.20;;;;;;5075866;28;20469;-58
2021/06/01 00:38:04;;;;;;;3.60;2.08;;;384.10;1971.20;;;;;;5075635;28;20021;-54
2021/06/01 00:40:30;;;;;;;5.05;2.60;;;384.00;1996.80;;;;;;5075869;28;20024;-54
2021/06/01 00:42:58;;;;;;;1.98;1.75;;;384.00;1996.80;;;;;;5075795;28;20355;-54
2021/06/01 00:45:25;;;;;;;4.95;1.85;;;384.00;1996.80;;;;;;5075059;28;20035;-54
2021/06/01 00:47:51;;;;;;;4.05;2.13;;;384.00;1996.80;;;;;;5075180;28;20516;-54
2021/06/01 00:50:21;;;;;;;3.75;2.08;;;384.00;1996.80;;;;;;5075445;28;20029;-54
2021/06/01 00:52:47;;;;;;;4.35;2.60;;;384.00;1996.80;;;;;;5075337;28;20028;-54
2021/06/01 00:55:14;;;;;;;4.45;2.60;;;359.30;1996.80;;;;;;5075412;28;20029;-55
2021/06/01 00:57:39;;;;;;;4.65;2.58;;;359.30;1996.80;;;;;;5075265;28;20114;-55
2021/06/01 01:02:52;;;;;;;4.60;2.38;;;359.30;1996.80;;;;;;5075270;28;20039;-58
2021/06/01 01:05:20;;;;;;;2.70;2.20;;;359.20;1996.80;;;;;;5075456;28;20032;-54
2021/06/01 01:10:52;;;;;;;3.00;2.15;;;359.20;1996.80;;;;;;5052948;28;20037;-54
2021/06/01 01:13:19;;;;;;;4.70;2.55;;;359.20;1996.80;;;;;;5052873;28;20159;-54
2021/06/01 01:15:49;;;;;;;5.65;2.55;;;359.20;1996.80;;;;;;5052911;28;20024;-54
2021/06/01 01:18:20;;;;;;;4.82;2.40;;;359.10;1996.80;;;;;;5052822;28;20064;-54
2021/06/01 01:21:00;;;;;;;4.95;2.53;;;359.10;1996.80;;;;;;5052923;28;20029;-54
2021/06/01 01:23:32;;;;;;;4.70;2.60;;;359.10;1996.80;;;;;;5052775;28;20159;-54
2021/06/01 01:26:22;;;;;;;8.17;2.67;;;359.10;1996.80;;;;;;5052706;28;20482;-54
2021/06/01 01:29:14;;;;;;;4.20;2.50;;;359.10;1996.80;;;;;;5052870;28;20025;-54
2021/06/01 01:31:43;;;;;;;5.00;2.90;;;359.00;2022.40;;;;;;5052578;28;20044;-55
2021/06/01 01:34:10;;;;;;;4.90;2.70;;;359.00;2022.40;;;;;;5052742;28;20124;-58
2021/06/01 01:36:37;;;;;;;4.53;3.05;;;358.90;2048.00;;;;;;5052423;28;20528;-54
2021/06/01 01:39:05;;;;;;;3.22;2.83;;;358.90;2048.00;;;;;;5052506;28;20080;-54
2021/06/01 01:41:35;;;;;;;6.57;2.97;;;358.90;2048.00;;;;;;5052459;28;20059;-55
2021/06/01 01:44:05;;;;;;;3.85;2.95;;;358.90;2048.00;;;;;;5052350;28;20029;-58
2021/06/01 01:49:23;;;;;;;5.95;3.05;;;358.90;2073.60;;;;;;5074660;28;20060;-58
2021/06/01 01:51:57;;;;;;;6.35;3.22;;;358.90;2073.60;;;;;;5074403;28;20017;-54
2021/06/01 01:54:24;;;;;;;3.83;2.85;;;358.80;2073.60;;;;;;5074502;28;20124;-54
2021/06/01 01:56:56;;;;;;;6.30;3.60;;;358.80;2048.00;;;;;;5073872;28;20519;-57
2021/06/01 01:59:26;;;;;;;4.18;3.28;;;358.90;2048.00;;;;;;5074033;28;20082;-55
2021/06/01 02:01:53;;;;;;;3.65;3.03;;;358.70;2048.00;;;;;;5074186;28;20016;-54
2021/06/01 02:04:23;;;;;;;7.53;3.28;;;358.60;2073.60;;;;;;5074262;28;20099;-54
2021/06/01 02:06:49;;;;;;;3.80;2.95;;;358.60;2073.60;;;;;;5074000;28;20035;-54
2021/06/01 02:09:15;;;;;;;4.97;3.80;;;358.70;2073.60;;;;;;5073905;28;20029;-54
2021/06/01 02:11:41;;;;;;;5.57;3.08;;;358.60;2073.60;;;;;;5073863;28;20024;-54
2021/06/01 02:14:08;;;;;;;4.70;3.13;;;358.60;2073.60;;;;;;5074109;28;20032;-55
2021/06/01 02:16:40;;;;;;;4.10;3.20;;;358.60;2073.60;;;;;;5074022;28;20033;-54
2021/06/01 02:19:08;;;;;;;3.65;2.75;;;358.50;2073.60;;;;;;5073756;28;20370;-54
2021/06/01 02:24:42;;;;;;;4.07;3.65;;;358.70;2048.00;;;;;;5074090;28;20473;-55
2021/06/01 02:27:11;;;;;;;4.70;3.85;;;358.70;2048.00;;;;;;5073816;28;20131;-58
2021/06/01 02:30:02;;;;;;;4.55;3.90;;;358.60;2048.00;;;;;;5072437;28;20028;-54
2021/06/01 02:32:39;;;;;;;6.95;4.03;;;358.70;2048.00;;;;;;5073506;28;20366;-54
2021/06/01 02:35:12;;;;;;;4.63;4.05;;;358.70;2048.00;;;;;;5073914;28;20031;-54
2021/06/01 02:37:40;;;;;;;7.63;3.70;;;358.70;2048.00;;;;;;5073525;28;20032;-54
2021/06/01 02:40:09;;;;;;;6.40;3.95;;;358.70;2048.00;;;;;;5073832;28;20099;-54
2021/06/01 02:42:37;;;;;;;5.93;4.05;;;358.70;2048.00;;;;;;5073165;28;20044;-54
2021/06/01 02:45:04;;;;;;;5.68;3.70;;;358.60;2073.60;;;;;;5072196;28;20068;-58
2021/06/01 02:47:31;;;;;;;6.53;3.97;;;358.60;2073.60;;;;;;5073528;28;20040;-54
2021/06/01 02:49:58;;;;;;;4.65;3.97;;;358.70;2073.60;;;;;;5073322;28;20496;-54
2021/06/01 02:52:24;;;;;;;10.20;3.92;;;358.60;2048.00;;;;;;5070860;28;20388;-54
2021/06/01 02:54:50;;;;;;;6.40;4.47;;;358.60;2073.60;;;;;;5071190;28;20024;-55
2021/06/01 02:57:19;;;;;;;7.05;4.15;;;358.70;2048.00;;;;;;5071029;28;20129;-58
2021/06/01 02:59:46;;;;;;;7.88;4.82;;;358.60;2048.00;;;;;;5071252;28;20171;-54
2021/06/01 03:02:12;;;;;;;4.45;3.60;;;358.60;2073.60;;;;;;5071130;28;20029;-55
2021/06/01 03:04:52;;;;;;;6.70;4.75;;;358.60;2073.60;;;;;;5071183;28;20029;-55
2021/06/01 03:07:18;;;;;;;5.97;4.20;;;358.60;2073.60;;;;;;5072127;28;20029;-58
2021/06/01 03:09:44;;;;;;;5.82;4.13;;;358.60;2048.00;;;;;;5073111;28;20028;-58
2021/06/01 03:12:24;;;;;;;5.95;4.55;;;358.60;2048.00;;;;;;5072814;28;20021;-54
2021/06/01 03:14:50;;;;;;;7.32;4.68;;;358.60;2048.00;;;;;;5073228;28;20029;-58
2021/06/01 03:17:16;;;;;;;6.82;4.93;;;358.50;2073.60;;;;;;5072998;28;20418;-59
2021/06/01 03:19:42;;;;;;;5.40;4.38;;;358.50;2073.60;;;;;;5072990;28;20469;-54
2021/06/01 03:22:08;;;;;;;6.28;4.72;;;358.50;2048.00;;;;;;5072846;28;20027;-59
2021/06/01 03:24:34;;;;;;;6.22;4.78;;;358.50;2073.60;;;;;;5072430;28;20021;-54
2021/06/01 03:27:00;;;;;;;5.38;4.70;;;358.50;2048.00;;;;;;5071889;28;20044;-58
2021/06/01 03:29:26;;;;;;;6.20;4.50;;;358.50;2048.00;;;;;;5072483;28;20361;-54
2021/06/01 03:31:53;;;;;;;6.90;4.65;;;358.50;2048.00;;;;;;5072949;28;20033;-57
2021/06/01 03:34:19;;;;;;;8.45;4.60;;;358.40;2048.00;;;;;;5072997;28;20028;-54
2021/06/01 03:36:44;;;;;;;9.65;5.13;;;358.40;2073.60;;;;;;5071682;28;20048;-58
2021/06/01 03:39:10;;;;;;;7.93;4.70;;;333.70;2073.60;;;;;;5073188;28;20160;-57
2021/06/01 03:41:36;;;;;;;6.88;4.68;;;358.40;2048.00;;;;;;5073255;28;20472;-59
2021/06/01 03:44:03;;;;;;;11.13;4.47;;;358.40;2048.00;;;;;;5072741;28;20028;-55
2021/06/01 03:46:29;;;;;;;6.85;4.22;;;358.40;2048.00;;;;;;5072726;28;20032;-54
2021/06/01 03:48:55;;;;;;;10.63;4.78;;;358.40;2073.60;;;;;;5072733;28;20029;-54
2021/06/01 03:51:21;;;;;;;7.63;4.63;;;333.60;2073.60;;;;;;5072673;28;20035;-54
2021/06/01 03:53:48;;;;;;;8.30;4.60;;;333.70;2073.60;;;;;;5072339;28;20032;-59
2021/06/01 03:56:14;;;;;;;10.55;4.45;;;;;;;;;;5072439;28;20052;-55
2021/06/01 03:58:40;;;;;;;8.80;5.10;;;;;;;;;;5072455;28;20475;-54
2021/06/01 04:01:07;;;;;;;5.60;4.60;;;;;;;;;;5072595;28;20029;-54
2021/06/01 04:03:39;;;;;;;6.47;4.10;;;;;;;;;;5072841;28;20397;-58
2021/06/01 04:06:05;;;;;;;7.57;4.70;;;;;;;;;;5074105;28;20423;-58
2021/06/01 04:08:31;;;;;;;29.63;17.05;;;;;;;;;;5076482;28;20108;-55
2021/06/01 04:10:57;;;;;;;9.27;6.80;;;;;;;;;;5076352;28;20052;-58
2021/06/01 04:13:24;;;;;;;8.55;5.22;;;;;;;;;;5076415;28;20031;-54
2021/06/01 04:15:50;;;;;;;6.47;4.82;;;;;;;;;;5076172;28;20354;-54
2021/06/01 04:18:16;;;;;;;8.93;4.82;;;;;;;;;;5076048;28;20543;-54
2021/06/01 04:20:42;;;;;;;8.02;4.97;;;;;;;;;;5075941;28;20020;-55
2021/06/01 04:23:08;;;;;;;6.50;4.55;;;;;;;;;;5076218;28;20377;-54
2021/06/01 04:25:34;;;;;;;6.32;4.95;;;;;;;;;;5075953;28;20027;-55
2021/06/01 04:28:01;;;;;;;13.13;5.35;;;;;;;;;;5075791;28;20119;-54
2021/06/01 04:30:27;;;;;;;7.97;4.90;;;;;;;;;;5075414;28;20055;-58
2021/06/01 04:32:53;;;;;;;7.38;4.38;;;;;;;;;;5075757;28;20020;-55
2021/06/01 04:35:19;;;;;;;7.75;4.70;;;;;;;;;;5075369;28;20066;-55
2021/06/01 04:37:46;;;;;;;8.65;5.05;;;;;;;;;;5075360;28;20025;-58
2021/06/01 04:40:14;;;;;;;10.45;5.72;;;;;;;;;;5075448;28;20025;-54
2021/06/01 04:42:41;;;;;;;9.38;5.32;;;;;;;;;;5075565;28;20107;-54
2021/06/01 04:45:07;;;;;;;9.40;6.05;;;;;;;;;;5075652;28;20080;-55
2021/06/01 04:47:33;;;;;;;7.40;5.55;;;;;;;;;;5075434;28;20465;-54
2021/06/01 04:49:59;;;;;;;11.73;5.80;;;;;;;;;;5075422;28;20031;-54
2021/06/01 04:52:26;;;;;;;8.93;5.93;;;;;;;;;;5075426;28;20078;-54
2021/06/01 04:54:52;;;;;;;11.18;6.57;;;;;;;;;;5075583;28;20021;-55
2021/06/01 04:57:18;;;;;;;8.90;6.47;;;;;;;;;;5075274;28;20044;-55
2021/06/01 04:59:45;;;;;;;13.50;5.93;;;;;;;;;;5074043;28;20024;-57
2021/06/01 05:02:11;;;;;;;6.50;5.20;;;;;;;;;;5074647;28;20029;-59
2021/06/01 05:04:37;;;;;;;11.10;6.32;;;;;;;;;;5074877;28;20020;-59
2021/06/01 05:07:03;;;;;;;6.32;4.60;;;;;;;;;;5074622;28;20032;-54
2021/06/01 05:09:30;;;;;;;7.10;5.40;;;;;;;;;;5072146;28;20066;-55
2021/06/01 05:11:56;;;;;;;8.52;5.80;;;;;;;;;;5074996;28;20096;-54
2021/06/01 05:14:22;;;;;;;6.40;5.00;;;;;;;;;;5075078;28;20027;-54
2021/06/01 05:16:48;;;;;;;6.75;5.20;;;;;;;;;;5074930;28;20052;-58
2021/06/01 05:19:14;;;;;;;6.93;5.10;;;;;;;;;;5074849;28;20381;-55
2021/06/01 05:21:41;;;;;;;6.80;4.85;;;;;;;;;;5074928;28;20039;-58
2021/06/01 05:24:07;;;;;;;7.60;4.80;;;;;;;;;;5075168;28;20024;-54
2021/06/01 05:26:34;;;;;;;9.60;4.93;;;;;;;;;;5075043;28;20032;-58
2021/06/01 05:29:00;;;;;;;7.60;4.55;;;;;;;;;;5074792;28;20039;-58
2021/06/01 05:31:40;;;;;;;10.80;5.50;;;;;;;;;;5074745;28;20099;-54
2021/06/01 05:34:07;;;;;;;7.07;4.40;;;358.90;1996.80;;;;;;5075104;28;20372;-55
2021/06/01 05:36:33;;;;;;;9.68;6.32;;;358.80;2022.40;;;;;;5074917;28;20033;-54
2021/06/01 05:38:59;;;;;;;5.68;4.03;;;358.80;2022.40;;;;;;5074911;28;20042;-54
2021/06/01 05:41:24;;;;;;;7.50;4.07;;;358.70;2022.40;;;;;;5074504;28;20035;-54
2021/06/01 05:43:50;;;;;;;5.50;3.97;;;358.80;2022.40;;;;;;5075410;28;20477;-54
2021/06/01 05:46:16;;;;;;;6.13;4.13;;;358.90;1996.80;;;;;;5074302;28;20029;-54
2021/06/01 05:48:43;;;;;;;6.50;4.32;;;358.90;1996.80;;;;;;5074324;28;20435;-54
2021/06/01 05:51:09;;;;;;;6.85;3.60;;;358.90;1996.80;;;;;;5074331;28;20427;-54
2021/06/01 05:53:35;;;;;;;8.00;3.75;;;358.90;1996.80;;;;;;5074178;28;20082;-54
2021/06/01 05:56:02;;;;;;;7.45;4.05;;;359.00;1996.80;;;;;;5074075;28;20044;-54
2021/06/01 05:58:28;;;;;;;4.60;3.80;;;359.00;1996.80;;;;;;5074278;28;20469;-54
2021/06/01 06:00:54;;;;;;;4.88;3.55;;;359.00;1996.80;;;;;;5074039;28;20162;-54
2021/06/01 06:03:20;;;;;;;5.95;3.35;;;359.10;1971.20;;;;;;5074182;28;20033;-54
2021/06/01 06:05:47;;;;;;;4.47;3.42;;;359.20;1971.20;;;;;;5074151;28;20440;-54
2021/06/01 06:08:18;;;;;;;8.52;3.83;;;359.20;1971.20;;;;;;5074000;28;20131;-58
2021/06/01 06:10:45;;;;;;;7.57;3.72;;;359.30;1996.80;;;;;;5074152;28;20063;-55
2021/06/01 06:13:12;;;;;;;5.15;3.15;;;384.00;1971.20;;;;;;5073414;28;20024;-55
2021/06/01 06:15:39;;;;;;;4.25;3.20;;;384.10;1945.60;;;;;;5073428;28;20020;-54
2021/06/01 06:18:17;;;;;;;9.13;3.50;;;384.20;1920.00;;;;;;5073609;28;20020;-55
2021/06/01 06:20:43;;;;;;;5.57;3.72;;;384.40;1920.00;;;;;;5073557;28;20025;-58
2021/06/01 06:23:09;;;;;;;4.65;3.35;;;384.40;1894.40;;;;;;5073445;28;20025;-55
2021/06/01 06:25:35;;;;;;;6.35;3.50;;;384.60;1894.40;;;;;;5073838;28;20074;-54
2021/06/01 06:28:01;;;;;;;5.88;3.17;;;384.60;1868.80;;;;;;5073032;28;20064;-54
2021/06/01 06:30:27;;;;;;;6.28;3.55;;;384.50;1843.20;;;;;;5073436;28;20024;-54
2021/06/01 06:32:53;;;;;;;6.50;3.38;;;384.40;1868.80;;;;;;5073833;28;20020;-55
2021/06/01 06:35:19;;;;;;;12.80;3.80;;;384.40;1868.80;;;;;;5073722;28;20351;-54
2021/06/01 06:37:45;;;;;;;10.25;3.33;;;384.50;1868.80;;;;;;5073436;28;20035;-54
2021/06/01 06:40:12;;;;;;;7.75;3.80;;;384.60;1868.80;;;;;;5073716;28;20366;-54
2021/06/01 06:42:40;;;;;;;8.05;3.78;;;384.60;1868.80;;;;;;5073359;28;20021;-55
2021/06/01 06:45:08;;;;;;;6.82;3.47;;;384.70;1868.80;;;;;;5073402;28;20095;-59
2021/06/01 06:50:12;;;;;;;9.93;4.22;;;384.70;1894.40;;;;;;5071593;28;20040;-55
2021/06/01 06:52:40;;;;;;;3.88;3.08;;;384.70;1894.40;;;;;;5071458;28;20652;-54
2021/06/01 06:55:08;;;;;;;7.05;3.63;;;384.90;1894.40;;;;;;5071773;28;20028;-54
2021/06/01 06:57:37;;;;;;;8.20;3.33;;;409.60;1868.80;;;;;;5072522;28;20113;-54
2021/06/01 07:00:15;;;;;;;8.82;3.75;;;409.80;1868.80;;;;;;5073292;28;20055;-58
2021/06/01 07:02:42;;;;;;;5.60;3.30;;;410.10;1868.80;;;;;;5072926;28;20060;-55
2021/06/01 07:05:11;;;;;;;6.75;3.67;;;410.30;1843.20;;;;;;5072255;28;20032;-59
2021/06/01 07:07:36;;;;;;;9.65;4.28;;;410.20;1868.80;;;;;;5070572;28;20047;-54
2021/06/01 07:10:04;;;;;;;6.47;3.75;;;410.30;1868.80;;;;;;5073048;28;20013;-54
2021/06/01 07:12:29;;;;;;;9.82;3.70;;;435.20;1868.80;;;;;;5073061;28;20031;-54
2021/06/01 07:15:26;;;;;;;8.57;4.00;;;435.20;1843.20;;;;;;5072836;28;20448;-54
2021/06/01 07:17:55;;;;;;;10.63;4.40;;;410.40;1868.80;;;;;;5069164;28;20206;-54
2021/06/01 07:20:21;;;;;;;5.00;3.75;;;410.30;1843.20;;;;;;5070992;28;20048;-54
2021/06/01 07:22:47;;;;;;;6.75;3.90;;;410.30;1868.80;;;;;;5069363;28;20060;-54
2021/06/01 07:25:13;;;;;;;6.50;3.90;;;410.10;1894.40;;;;;;5071000;28;20059;-54
2021/06/01 07:27:39;;;;;;;7.60;4.20;;;410.30;1868.80;;;;;;5069633;28;20037;-54
2021/06/01 07:30:08;;;;;;;6.22;3.88;;;410.20;1843.20;;;;;;5069325;28;20073;-54
2021/06/01 07:32:34;;;;;;;7.53;3.95;;;410.30;1843.20;;;;;;5069633;28;20043;-54
2021/06/01 07:35:01;;;;;;;12.38;4.32;;;410.40;1843.20;;;;;;5069831;28;20439;-54
2021/06/01 07:37:27;;;;;;;8.13;3.67;;;435.20;1817.60;;;;;;5069155;28;20158;-54
2021/06/01 07:39:53;;;;;;;6.55;4.38;;;435.30;1817.60;;;;;;5069796;28;20024;-54
2021/06/01 07:42:19;;;;;;;9.43;3.67;;;435.30;1792.00;;;;;;5072328;28;20405;-54
2021/06/01 07:44:45;;;;;;;13.10;4.07;;;435.50;1766.40;;;;;;5072215;28;20077;-54
2021/06/01 07:47:11;;;;;;;10.32;3.40;;;435.60;1740.80;;;;;;5072180;28;20072;-54
2021/06/01 07:49:36;;;;;;;5.53;3.83;;;435.70;1740.80;;;;;;5072143;28;20479;-55
2021/06/01 07:52:03;;;;;;;6.72;3.92;;;435.80;1766.40;;;;;;5072258;28;20684;-54
2021/06/01 07:54:29;;;;;;;8.45;3.78;;;436.00;1766.40;;;;;;5064534;28;20082;-54
2021/06/01 07:56:55;;;;;;;7.72;3.40;;;435.90;1740.80;;;;;;5055411;28;20132;-54
2021/06/01 07:59:21;;;;;;;8.20;3.72;;;435.90;1715.20;;;;;;5056532;28;20025;-54
2021/06/01 08:01:47;;;;;;;8.73;4.05;;;435.90;1766.40;;;;;;5056458;28;20029;-54
2021/06/01 08:04:14;;;;;;;6.60;3.90;;;;;;;;;;5056461;28;20359;-54
2021/06/01 08:06:40;;;;;;;7.85;3.85;;;460.90;1715.20;;;;;;5056584;28;20029;-54
2021/06/01 08:09:07;;;;;;;8.85;4.00;;;460.80;1715.20;;;;;;5056616;28;20070;-55
2021/06/01 08:11:34;;;;;;;8.82;4.00;;;460.80;1715.20;;;;;;5056323;28;20082;-54
2021/06/01 08:14:00;;;;;;;7.03;3.53;;;461.00;1766.40;;;;;;5056221;28;20025;-55
2021/06/01 08:16:26;;;;;;;7.32;3.88;;;460.90;1664.00;;;;;;5056469;28;20025;-55
2021/06/01 08:24:06;;;;;;;11.77;3.88;;;460.90;1689.60;;;;;;5056627;28;20529;-54
2021/06/01 08:26:31;;;;;;;13.93;3.83;;;460.90;1715.20;;;;;;5055815;28;20547;-54
2021/06/01 08:28:57;;;;;;;7.53;3.40;;;460.80;1664.00;;;;;;5056240;28;20021;-55
2021/06/01 08:31:23;;;;;;;16.10;5.65;;;460.80;1689.60;;;;;;5055874;28;20021;-55
2021/06/01 08:33:49;;;;;;;8.70;3.90;;;460.80;1689.60;;;;;;5055844;28;20466;-54
2021/06/01 08:36:15;;;;;;;7.80;3.65;;;460.80;1715.20;;;;;;5056087;28;20056;-60
2021/06/01 08:38:41;;;;;;;7.18;3.35;;;460.80;1689.60;;;;;;5055805;28;20033;-55
2021/06/01 08:41:07;;;;;;;6.53;3.95;;;460.90;1689.60;;;;;;5055746;28;20086;-54
2021/06/01 08:43:33;;;;;;;6.45;3.47;;;460.90;1715.20;;;;;;5055648;28;20033;-55
2021/06/01 08:45:59;;;;;;;8.40;3.80;;;461.00;1945.60;;;;;;5072698;28;20389;-58
2021/06/01 08:48:26;;;;;;;5.43;3.60;;;461.00;1664.00;;;;;;5075132;28;20048;-55
2021/06/01 08:50:54;;;;;;;7.55;3.75;;;461.00;1664.00;;;;;;5074666;28;20024;-55
2021/06/01 08:53:20;;;;;;;7.10;4.25;;;461.00;1638.40;;;;;;5070403;28;20037;-54
2021/06/01 08:55:47;;;;;;;8.32;3.85;;;461.00;1664.00;;;;;;5074742;28;20032;-58
2021/06/01 08:58:19;;;;;;;6.95;3.80;;;461.00;1664.00;;;;;;5074870;28;20055;-60
2021/06/01 09:00:45;;;;;;;9.82;4.75;;;;;;;;;;5074905;28;20050;-57
2021/06/01 09:03:32;;;;;;;5.20;3.70;;;;;;;;;;5074992;28;20034;-55
2021/06/01 09:06:14;;;;;;;7.35;4.00;;;;;;;;;;5075260;28;20055;-59
2021/06/01 09:08:44;;;;;;;9.35;3.63;;;;;;;;;;5075360;28;20166;-54
2021/06/01 09:11:16;;;;;;;7.57;4.20;;;;;;;;;;5075060;28;20491;-60
2021/06/01 09:14:11;;;;;;;9.63;3.85;;;;;;;;;;5075204;28;20052;-55
2021/06/01 09:22:06;;;;;;;8.38;5.45;;;461.60;1561.60;;;;;;5075154;28;20166;-55
2021/06/01 09:24:32;;;;;;;7.45;3.92;;;461.50;1587.20;;;;;;5074818;28;20099;-55
2021/06/01 09:29:33;;;;;;;27.48;6.03;;;461.60;1587.20;;;;;;5074891;28;20036;-54
2021/06/01 09:32:12;;;;;;;10.07;4.20;;;461.60;1638.40;;;;;;5074298;28;20417;-55
2021/06/01 09:34:47;;;;;;;15.75;5.68;;;461.70;1638.40;;;;;;5074602;28;20035;-57
2021/06/01 09:37:37;;;;;;;14.40;5.38;;;486.60;1587.20;;;;;;5074333;28;20392;-60
2021/06/01 09:40:18;;;;;;;14.23;5.90;;;486.50;1536.00;;;;;;5074472;28;20021;-59
2021/06/01 09:42:48;;;;;;;10.00;5.88;;;486.50;1587.20;;;;;;5074455;28;20100;-54
2021/06/01 09:45:14;;;;;;;12.65;4.47;;;486.50;1587.20;;;;;;5073992;28;20048;-59
2021/06/01 09:47:53;;;;;;;12.68;5.72;;;486.50;1561.60;;;;;;5073843;28;20063;-54
2021/06/01 09:51:16;;;;;;;14.32;4.43;;;486.60;1587.20;;;;;;5071999;28;20020;-58
2021/06/01 09:53:25;;;;;;;13.20;4.47;;;486.50;1587.20;;;;;;5071074;28;20048;-55
2021/06/01 09:55:52;;;;;;;10.38;4.20;;;486.50;1561.60;;;;;;5074025;28;20044;-55
2021/06/01 09:58:29;;;;;;;7.93;3.88;;;486.50;1561.60;;;;;;5073930;28;20021;-54
2021/06/01 10:00:56;;;;;;;8.50;4.28;;;486.40;1561.60;;;;;;5073670;28;20103;-55
2021/06/01 10:03:33;;;;;;;7.38;3.65;;;461.70;1587.20;;;;;;5072694;28;20476;-55
2021/06/01 10:05:59;;;;;;;7.68;4.97;;;461.70;1561.60;;;;;;5070951;28;20016;-55
2021/06/01 10:08:27;;;;;;;14.98;5.88;;;461.60;1561.60;;;;;;5073456;28;20041;-55
2021/06/01 10:11:03;;;;;;;13.23;5.07;;;486.40;1587.20;;;;;;5073937;28;20389;-55
2021/06/01 10:13:32;;;;;;;11.52;5.65;;;486.40;1536.00;;;;;;5074014;28;20024;-55
2021/06/01 10:16:00;;;;;;;17.00;7.00;;;486.50;1536.00;;;;;;5073958;28;20025;-60
2021/06/01 10:18:29;;;;;;;29.70;7.03;;;486.50;1561.60;;;;;;5073743;28;20495;-55
2021/06/01 10:20:59;;;;;;;10.43;4.85;;;486.50;1536.00;;;;;;5073639;28;20042;-59
2021/06/01 10:23:30;;;;;;;35.45;8.93;;;486.60;1510.40;;;;;;5074040;28;20069;-55
2021/06/01 10:25:57;;;;;;;23.92;5.53;;;486.70;1587.20;;;;;;5073730;28;20473;-55
2021/06/01 10:28:33;;;;;;;12.63;4.80;;;486.80;1561.60;;;;;;5073515;28;20074;-55
2021/06/01 10:30:59;;;;;;;8.38;3.63;;;486.70;1561.60;;;;;;5073668;28;20024;-56
2021/06/01 10:33:33;;;;;;;9.57;3.65;;;486.60;1484.80;;;;;;5073494;28;20024;-55
2021/06/01 10:53:25;;;;;;;9.77;4.68;;;486.80;1408.00;;;;;;5051359;28;20167;-54
2021/06/01 10:55:51;;;;;;;10.60;4.72;;;486.80;1459.20;;;;;;5051081;28;20077;-66
2021/06/01 10:58:21;;;;;;;7.97;4.00;;;486.90;1459.20;;;;;;5051176;28;20032;-55
2021/06/01 11:03:16;;;;;;;16.85;4.72;;;487.10;1459.20;;;;;;5051252;28;20021;-55
2021/06/01 11:05:58;;;;;;;7.93;4.32;;;487.30;1433.60;;;;;;5051448;28;20041;-54
2021/06/01 11:08:34;;;;;;;16.25;5.38;;;487.10;1433.60;;;;;;5051112;28;20485;-62
2021/06/01 11:11:23;;;;;;;14.43;4.63;;;487.00;1433.60;;;;;;5051372;28;20038;-55
2021/06/01 11:13:49;;;;;;;9.32;3.88;;;487.10;1433.60;;;;;;5051148;28;20033;-55
2021/06/01 11:16:15;;;;;;;13.35;4.07;;;487.00;1408.00;;;;;;5055097;28;20495;-54
2021/06/01 11:18:48;;;;;;;9.65;3.88;;;487.00;1408.00;;;;;;5055266;28;20086;-63
2021/06/01 11:24:46;;;;;;;9.98;4.35;;;487.00;1433.60;;;;;;5054708;28;20040;-63
2021/06/01 11:35:23;;;;;;;7.50;3.38;;;512.00;1356.80;;;;;;5054938;28;20445;-61
2021/06/01 11:44:15;;;;;;;8.32;2.53;;;487.30;1280.00;;;;;;5056705;28;20040;-65
2021/06/01 11:47:28;;;;;;;30.20;3.83;;;512.00;1254.40;;;;;;5056656;28;20115;-55
2021/06/01 11:53:53;;;;;;;5.60;2.00;;;512.30;1203.20;;;;;;5056649;28;20261;-61
2021/06/01 12:03:24;;;;;;;5.95;2.17;;;512.40;1177.60;;;;;;5074317;28;20039;-54
2021/06/01 12:20:57;;;;;;;6.28;1.63;;;512.60;1049.60;;;;;;5075614;28;20032;-55
2021/06/01 12:23:30;;;;;;;3.92;2.15;;;512.60;1075.20;;;;;;5074583;28;20016;-64
2021/06/01 12:26:16;;;;;;;5.68;1.63;;;512.70;1100.80;;;;;;5075359;28;20439;-64
2021/06/01 12:32:15;;;;;;;9.13;2.58;;;537.60;1075.20;;;;;;5076075;28;20035;-54
2021/06/01 12:43:06;;;;;;;14.10;4.70;;;537.80;1049.60;;;;;;5075950;28;20039;-55
2021/06/01 13:08:58;;;;;;;8.20;1.92;;;538.10;1024.00;;;;;;5075215;28;20051;-55
2021/06/01 13:14:26;;;;;;;3.40;1.92;;;538.20;1024.00;;;;;;5074923;28;20027;-54
2021/06/01 13:19:42;;;;;;;5.10;1.90;;;537.90;1049.60;;;;;;5075394;28;20044;-55
2021/06/01 13:39:38;;;;;;;8.68;4.68;;;537.60;1100.80;;;;;;5071669;28;20020;-55
2021/06/01 13:50:43;;;;;;;29.98;3.97;;;512.90;1049.60;;;;;;5074584;28;20477;-54
2021/06/01 13:55:06;;;;;;;8.02;2.35;;;537.60;1100.80;;;;;;5073732;28;20035;-56
2021/06/01 13:56:09;;;;;;;5.70;2.10;;;512.90;1049.60;;;;;;5073719;28;20049;-55
2021/06/01 13:58:54;;;;;;;3.38;1.77;;;512.90;1024.00;;;;;;5068294;28;20504;-54
2021/06/01 15:50:24;;;;;;;7.22;3.42;;;538.00;1075.20;;;;;;5049965;28;20036;-55
2021/06/01 15:53:32;;;;;;;10.20;3.58;;;537.90;1152.00;;;;;;5044894;28;20045;-61
2021/06/01 16:23:07;;;;;;;24.08;4.38;;;537.80;1049.60;;;;;;5074793;28;20081;-56
2021/06/01 17:06:05;;;;;;;3.65;1.45;;;537.80;1075.20;;;;;;5074202;28;20071;-54
2021/06/01 17:08:59;;;;;;;7.38;2.05;;;537.80;1049.60;;;;;;5072790;28;20094;-58
2021/06/01 17:11:31;;;;;;;4.47;1.80;;;537.80;1126.40;;;;;;5073391;28;20039;-55
2021/06/01 17:14:01;;;;;;;7.07;2.03;;;537.70;1075.20;;;;;;5072712;28;20107;-55
2021/06/01 17:30:34;;;;;;;7.75;2.00;;;512.90;1075.20;;;;;;5073921;28;20024;-55
2021/06/01 17:35:20;;;;;;;5.78;1.73;;;537.60;1100.80;;;;;;5073599;28;20031;-54
2021/06/01 17:37:46;;;;;;;6.43;1.45;;;512.90;1049.60;;;;;;5074042;28;20435;-54
2021/06/01 17:40:16;;;;;;;3.42;1.55;;;512.80;1075.20;;;;;;5072913;28;20028;-55
2021/06/01 17:43:08;;;;;;;4.45;1.63;;;512.80;1100.80;;;;;;5071950;28;20036;-55
2021/06/01 17:45:38;;;;;;;6.88;1.63;;;512.80;1100.80;;;;;;5067145;28;20067;-54
2021/06/01 17:48:10;;;;;;;5.93;1.88;;;512.70;1100.80;;;;;;5072020;28;20036;-54
2021/06/01 17:50:37;;;;;;;5.03;1.83;;;512.70;1100.80;;;;;;5072153;28;20028;-55
2021/06/01 17:53:05;;;;;;;5.25;2.30;;;512.60;1100.80;;;;;;5070695;28;20515;-55
2021/06/01 17:55:33;;;;;;;5.28;2.28;;;512.50;1100.80;;;;;;5072816;28;20491;-54
2021/06/01 17:58:00;;;;;;;8.75;2.35;;;512.50;1152.00;;;;;;5072768;28;20052;-54
2021/06/01 18:00:28;;;;;;;6.60;2.10;;;512.50;1152.00;;;;;;5073227;28;20016;-54
2021/06/01 18:02:54;;;;;;;7.85;2.30;;;512.50;1177.60;;;;;;5071083;28;20031;-54
2021/06/01 18:05:23;;;;;;;7.45;2.53;;;512.40;1177.60;;;;;;5072766;28;20095;-54
2021/06/01 18:08:15;;;;;;;10.60;2.30;;;512.30;1203.20;;;;;;5072600;28;20174;-55
2021/06/01 19:25:09;;;;;;;5.25;3.40;;;486.50;1382.40;;;;;;5070219;28;20023;-56
2021/06/01 19:28:24;;;;;;;9.88;2.80;;;486.50;1356.80;;;;;;5071084;28;20358;-57
2021/06/01 19:49:52;;;;;;;5.68;3.40;;;461.60;1382.40;;;;;;5072116;28;20027;-55
2021/06/01 19:50:04;;;;;;;8.60;3.28;;;461.30;1408.00;;;;;;5070348;28;20480;-55
2021/06/01 19:52:32;;;;;;;11.88;3.00;;;461.40;1408.00;;;;;;5074079;28;20115;-55
2021/06/01 19:55:00;;;;;;;9.23;3.67;;;461.30;1408.00;;;;;;5071615;28;20021;-55
2021/06/01 19:57:27;;;;;;;9.35;3.35;;;461.30;1408.00;;;;;;5073418;28;20104;-56
2021/06/01 19:59:56;;;;;;;4.68;2.65;;;461.30;1382.40;;;;;;5073897;28;20423;-55
2021/06/01 20:02:31;;;;;;;7.82;2.83;;;461.30;1408.00;;;;;;5074247;28;20922;-66
2021/06/01 20:04:59;;;;;;;8.70;3.00;;;461.20;1408.00;;;;;;5073031;28;20020;-54
2021/06/01 20:07:27;;;;;;;18.58;3.30;;;461.20;1408.00;;;;;;5073952;28;20044;-54
2021/06/01 20:09:54;;;;;;;10.00;3.35;;;461.20;1408.00;;;;;;5074729;28;20381;-55